Briefing drone pour Vichy (LFLV)

Rechercher une autre localisation

Conditions de vol :


Nous sommes le : Lundi 06 février 2023
Il est 11:58 UTC (12:58 LT)

Lever de soleil : 06:36 UTC (07:36 LT)
Coucher de soleil : 17:24 UTC (18:24 LT)

Météo

L'essentiel des conditions de vol

VIGILANCE MÉTÉO FRANCE - Allier (03)
Pas de vigilances particulieres
CARTES DES FRONTS
METAR de LFLV
LFLV 061130Z AUTO 05007KT 360V080 9999 BKN025 OVC032 05/01 Q1034

Date d'émission: 06/02/2023
Heure d'émission: 11:30 UTC
Vent: 050° (variable du 360° au 080°) pour 7 KT (13 km/h)
Visibilité horizontale: > 10 km
Plafond :
- Nuages morcelés à 2500ft (762m)
- Couvert à 3200ft (975m)
Température: 5 °C
Point de rosée: 1 °C
Humidité: 75%
Pression (QNH): 1034 hPa
Prévision 24h pour Vichy
Vent : 51° pour 1 KT (5 km/h)
Temperature Maxi: -3 °C
Temperature Min: -3 °C
Humidité : 98%
Condition : Peu nuageux



Warning: count(): Parameter must be an array or an object that implements Countable in /homepages/6/d509196549/htdocs/droneoxygene/briefing.php on line 743
WEBCAM POUR VICHY

Réglementation

Voler en sécurité

CARTES AERONAUTIQUE 1/500.000
CARTE AZBA (Reseau basse altitude)
CARTES VAC (LFLV)
SUP AIP




Chargement des AIP...
NOTAM (VICHY + Terrain à proximité / FIR )




Chargement des NOTAMS...
CONTACT PREFECTURE 03
Allier (03) : [email protected]


Avertissement : Les données mises à disposition sont indicatives. Oxygène Drone ne pourra être tenu responsable de dégâts causés aux biens et aux personnes.